Dru Lirette — WDB9956 — position and weather

sailwx.info

Track history (hours):
 
Tides and Currents Weather Stations Pressure Air Temp Water Temp Dewpoint Dewpoint Depression Visibility Wind Speed Wind Dir Waves Ship Positions

Dru Lirette

Owner: AEP River Operations LLC, Chesterfield, MO. More information available from US FCC via Universal Licensing System and Coast Guard Vessel Documentation Center.

Last reported at 2015-Aug-01 13:22 UTC. Time now 2015-Aug-03 23:26 UTC.
Position N 38°33' W 082°47'.

Length 46 m; draft 10 m.

Type: Towing. MMSI: 366985660.

Date/timePositionNaut miles runAvg speedWind from/ knotsBaromVisibWave heightAir tempDewpointWater temp
2015-Aug-01 13:22N 38°33' W 082°47'43 1.8
2015-Jul-31 14:12N 38°38' W 083°41'1 1.7
2015-Jul-31 13:33N 38°38' W 083°42'4 3.2
2015-Jul-31 12:16N 38°40' W 083°47'2 3.2
2015-Jul-31 11:33N 38°42' W 083°48'3 3.2
2015-Jul-31 10:33N 38°45' W 083°51'3 3.4
2015-Jul-31 09:33N 38°46' W 083°55'4 3.5
2015-Jul-31 08:32N 38°47' W 083°59'4 3.8
2015-Jul-31 07:33N 38°46' W 084°04'4 3.9
2015-Jul-31 06:33N 38°47' W 084°09'2 1.5
2015-Jul-31 05:33N 38°48' W 084°11'2 1.8
2015-Jul-31 04:33N 38°48' W 084°13'2 2.2
2015-Jul-31 03:32N 38°50' W 084°14'0 0.1
2015-Jul-31 02:32N 38°50' W 084°14'0 0.1
2015-Jul-31 01:33N 38°50' W 084°14'3 2.6
2015-Jul-31 00:33N 38°53' W 084°14'3 3.4
2015-Jul-30 23:33N 38°56' W 084°16'3 3.4
2015-Jul-30 22:33N 38°59' W 084°18'3 3.3
2015-Jul-30 21:33N 39°02' W 084°20'3 3.4
2015-Jul-30 20:33N 39°03' W 084°25'3 3.3
2015-Jul-30 19:33N 39°06' W 084°26'3 2.5
2015-Jul-30 18:33N 39°06' W 084°29'2 2.4
2015-Jul-30 17:33N 39°06' W 084°32'3 3.2
2015-Jul-30 16:33N 39°04' W 084°36'3 2.6
2015-Jul-30 15:32N 39°05' W 084°39'0 0.0
2015-Jul-30 14:33N 39°05' W 084°39'0 0.1
2015-Jul-30 13:33N 39°05' W 084°39'0 0.0
2015-Jul-30 12:33N 39°05' W 084°39'0 0.5
2015-Jul-30 11:30N 39°06' W 084°40'3 3.1
2015-Jul-30 10:31N 39°08' W 084°43'10 2.3
2015-Jul-30 06:12N 38°60' W 084°51'  
Track history (hours):
 
Tides and Currents Weather Stations Pressure Air Temp Water Temp Dewpoint Dewpoint Depression Visibility Wind Speed Wind Dir Waves Ship Positions

Dru Lirette

Owner: AEP River Operations LLC, Chesterfield, MO. More information available from US FCC via Universal Licensing System and Coast Guard Vessel Documentation Center.

Last reported at 2015-Aug-01 13:22 UTC. Time now 2015-Aug-03 23:26 UTC.
Position N 38°33' W 082°47'.

Length 46 m; draft 10 m.

Type: Towing. MMSI: 366985660.

Date/timePositionNaut miles runAvg speedWind from/ knotsBaromVisibWave heightAir tempDewpointWater temp
2015-Aug-01 13:22N 38°33' W 082°47'43 1.8
2015-Jul-31 14:12N 38°38' W 083°41'1 1.7
2015-Jul-31 13:33N 38°38' W 083°42'4 3.2
2015-Jul-31 12:16N 38°40' W 083°47'2 3.2
2015-Jul-31 11:33N 38°42' W 083°48'3 3.2
2015-Jul-31 10:33N 38°45' W 083°51'3 3.4
2015-Jul-31 09:33N 38°46' W 083°55'4 3.5
2015-Jul-31 08:32N 38°47' W 083°59'4 3.8
2015-Jul-31 07:33N 38°46' W 084°04'4 3.9
2015-Jul-31 06:33N 38°47' W 084°09'2 1.5
2015-Jul-31 05:33N 38°48' W 084°11'2 1.8
2015-Jul-31 04:33N 38°48' W 084°13'2 2.2
2015-Jul-31 03:32N 38°50' W 084°14'0 0.1
2015-Jul-31 02:32N 38°50' W 084°14'0 0.1
2015-Jul-31 01:33N 38°50' W 084°14'3 2.6
2015-Jul-31 00:33N 38°53' W 084°14'3 3.4
2015-Jul-30 23:33N 38°56' W 084°16'3 3.4
2015-Jul-30 22:33N 38°59' W 084°18'3 3.3
2015-Jul-30 21:33N 39°02' W 084°20'3 3.4
2015-Jul-30 20:33N 39°03' W 084°25'3 3.3
2015-Jul-30 19:33N 39°06' W 084°26'3 2.5
2015-Jul-30 18:33N 39°06' W 084°29'2 2.4
2015-Jul-30 17:33N 39°06' W 084°32'3 3.2
2015-Jul-30 16:33N 39°04' W 084°36'3 2.6
2015-Jul-30 15:32N 39°05' W 084°39'0 0.0
2015-Jul-30 14:33N 39°05' W 084°39'0 0.1
2015-Jul-30 13:33N 39°05' W 084°39'0 0.0
2015-Jul-30 12:33N 39°05' W 084°39'0 0.5
2015-Jul-30 11:30N 39°06' W 084°40'3 3.1
2015-Jul-30 10:31N 39°08' W 084°43'10 2.3
2015-Jul-30 06:12N 38°60' W 084°51'  

Dump ship's entire track history